»·PEaware :: N21585 KRAL-KLAX

N21585 :: KRAL-KLAX

FLIGHT INFORMATION

Flight Status: Arrived
Operator: Privately registered:
United States
More flights under this callsign
Pilot: Erik K. (18332)
Aircraft: PIPER PA-28R-201 ARROW
(P28R)
More flights by this aircraft type
Origin: KRAL Riverside Mun
United States
Destination: KLAX Los Angeles Intl
United States
More flights between these airports :: More routes between these airports
Route: RAL2 PDZ PDZ270 LAX
File this flight plan on PilotEdge
Remarks: TEC route ONTP4
Altitude:
(Current/Filed)
4,000ft
Speed:
(Current/Filed)
120kts
Departed: 23-Dec-21 08:12 PM
Arrived: 23-Dec-21 08:48 PM
Distance/Time
Traveled:
48nm/0:36
Distance/Time
To Go:
Arrived

Flight Plot

Page will automatically refresh every two minutes.

Flight plan parsing failed; only flown route is shown


Map Options




Map Legend


Flown Route
Filed Route
Departure Airport
Arrival Airport
Navaid (VOR, NDB)
Fix

Horizontal Profiles

Position Reports

Time Latitude Longitude Heading Altitude Ground
Speed
23-Dec-21 19:38 33.951241 -117.445227 282 771ft 0kts
23-Dec-21 19:39 33.951241 -117.445227 282 771ft 0kts
23-Dec-21 19:40 33.951241 -117.445227 282 771ft 0kts
23-Dec-21 19:41 33.951241 -117.445227 282 771ft 0kts
23-Dec-21 19:42 33.951241 -117.445227 282 771ft 0kts
23-Dec-21 19:43 33.951241 -117.445227 282 771ft 0kts
23-Dec-21 19:44 33.951241 -117.445227 282 771ft 0kts
23-Dec-21 19:45 33.951241 -117.445227 282 771ft 0kts
23-Dec-21 19:46 33.951241 -117.445227 282 771ft 0kts
23-Dec-21 19:47 33.951241 -117.445227 282 771ft 0kts
23-Dec-21 19:48 33.951241 -117.445227 282 771ft 0kts
23-Dec-21 19:49 33.951241 -117.445227 282 771ft 0kts
23-Dec-21 19:50 33.951241 -117.445227 282 771ft 0kts
23-Dec-21 19:51 33.951243 -117.445234 282 771ft 0kts
23-Dec-21 19:52 33.951243 -117.445234 282 771ft 0kts
23-Dec-21 19:53 33.951243 -117.445234 282 771ft 0kts
23-Dec-21 19:54 33.951243 -117.445234 282 771ft 0kts
23-Dec-21 19:55 33.951243 -117.445234 282 771ft 0kts
23-Dec-21 19:56 33.951243 -117.445234 282 771ft 0kts
23-Dec-21 19:57 33.951243 -117.445234 282 771ft 0kts
23-Dec-21 19:58 33.951243 -117.445234 282 771ft 0kts
23-Dec-21 19:59 33.951243 -117.445234 282 771ft 0kts
23-Dec-21 20:00 33.951243 -117.445234 282 771ft 0kts
23-Dec-21 20:01 33.951243 -117.445234 282 771ft 0kts
23-Dec-21 20:02 33.951372 -117.445071 81 772ft 4kts
23-Dec-21 20:03 33.951358 -117.442803 102 784ft 10kts
23-Dec-21 20:04 33.950618 -117.439053 103 801ft 13kts
23-Dec-21 20:05 33.949902 -117.435322 95 811ft 6kts
23-Dec-21 20:06 33.949906 -117.435209 80 812ft 0kts
23-Dec-21 20:07 33.949906 -117.435209 80 812ft 0kts
23-Dec-21 20:08 33.949906 -117.435209 80 812ft 0kts
23-Dec-21 20:09 33.949906 -117.435209 80 812ft 0kts
23-Dec-21 20:10 33.949906 -117.435209 80 812ft 0kts
23-Dec-21 20:11 33.951042 -117.437216 283 811ft 52kts
23-Dec-21 20:12 33.952397 -117.469010 264 1678ft 90kts
23-Dec-21 20:13 33.939773 -117.498226 240 2708ft 94kts
23-Dec-21 20:14 33.922231 -117.525123 271 3616ft 91kts
23-Dec-21 20:15 33.925498 -117.555411 304 4135ft 93kts
23-Dec-21 20:16 33.929988 -117.594152 281 4068ft 112kts
23-Dec-21 20:17 33.938080 -117.634282 295 4095ft 109kts
23-Dec-21 20:18 33.953082 -117.671075 302 4092ft 112kts
23-Dec-21 20:19 33.951975 -117.712878 261 4113ft 126kts
23-Dec-21 20:20 33.942055 -117.757821 261 4108ft 129kts
23-Dec-21 20:21 33.932126 -117.804278 265 4005ft 134kts
23-Dec-21 20:22 33.927678 -117.854706 269 3856ft 145kts
23-Dec-21 20:23 33.926990 -117.905807 267 4053ft 137kts
23-Dec-21 20:24 33.925750 -117.956246 268 4101ft 144kts
23-Dec-21 20:25 33.925680 -118.008729 260 4081ft 146kts
23-Dec-21 20:26 33.924615 -118.062069 266 4052ft 146kts
23-Dec-21 20:27 33.923800 -118.115301 263 4024ft 145kts
23-Dec-21 20:28 33.923810 -118.167104 267 3988ft 146kts
23-Dec-21 20:29 33.920631 -118.216436 254 3977ft 141kts
23-Dec-21 20:30 33.916272 -118.265488 256 3942ft 142kts
23-Dec-21 20:31 33.912046 -118.313728 259 3967ft 140kts
23-Dec-21 20:32 33.907783 -118.362985 255 3914ft 141kts
23-Dec-21 20:33 33.903557 -118.412776 251 3946ft 135kts
23-Dec-21 20:34 33.893455 -118.459247 243 3869ft 137kts
23-Dec-21 20:35 33.881161 -118.505180 242 3887ft 134kts
23-Dec-21 20:36 33.866537 -118.549538 237 3906ft 131kts
23-Dec-21 20:37 33.852078 -118.593590 238 3963ft 131kts
23-Dec-21 20:38 33.868493 -118.632451 343 3768ft 145kts
23-Dec-21 20:39 33.905628 -118.634309 62 3095ft 116kts
23-Dec-21 20:40 33.919532 -118.595983 75 2460ft 110kts
23-Dec-21 20:41 33.920172 -118.556241 95 1739ft 93kts
23-Dec-21 20:42 33.923967 -118.525358 87 2016ft 80kts
23-Dec-21 20:43 33.925887 -118.496241 91 1679ft 81kts
23-Dec-21 20:44 33.929149 -118.467093 90 1014ft 81kts
23-Dec-21 20:45 33.931697 -118.439525 84 556ft 69kts
23-Dec-21 20:46 33.934045 -118.415457 82 117ft 47kts
23-Dec-21 20:47 33.933337 -118.412023 109 120ft 0kts
23-Dec-21 20:48 33.933337 -118.412023 109 120ft 0kts
23-Dec-21 20:49 33.933324 -118.410159 83 120ft 16kts
23-Dec-21 20:50 33.933308 -118.404121 81 115ft 0kts

Navigation Log

Ident Type
Flight plan parsing failed, navigation log unavailable